createdAt,value
2022-12-28T00:01:20.748Z,102178.38
2022-12-28T00:03:48.194Z,102178.47
2022-12-28T00:06:16.339Z,102168.34
2022-12-28T00:08:44.426Z,102166.88
2022-12-28T00:11:20.348Z,102159.03
2022-12-28T00:13:55.364Z,102152.31
2022-12-28T00:16:30.513Z,102160.41
2022-12-28T00:18:58.863Z,102156.19
2022-12-28T00:21:27.323Z,102151.53
2022-12-28T00:23:57.911Z,102157.28
2022-12-28T00:26:26.857Z,102166.75
2022-12-28T00:29:01.467Z,102165.75
2022-12-28T00:31:32.144Z,102158.13
2022-12-28T00:34:00.076Z,102160.44
2022-12-28T00:37:09.633Z,102162.22
2022-12-28T00:39:14.861Z,102160.97
2022-12-28T00:41:42.615Z,102159.53
2022-12-28T00:44:11.103Z,102155.38
2022-12-28T00:46:38.868Z,102164.09
2022-12-28T00:49:06.311Z,102162.31
2022-12-28T00:51:33.760Z,102162.16
2022-12-28T00:54:01.057Z,102173.94
2022-12-28T00:56:28.472Z,102163.72
2022-12-28T00:58:57.611Z,102166.53
2022-12-28T01:01:26.948Z,102160.06
2022-12-28T01:03:58.394Z,102163.00
2022-12-28T01:06:26.265Z,102160.00
2022-12-28T01:08:53.596Z,102157.50
2022-12-28T01:11:22.431Z,102165.53
2022-12-28T01:13:50.910Z,102169.44
2022-12-28T01:16:23.381Z,102165.00
2022-12-28T01:18:54.813Z,102169.66
2022-12-28T01:21:23.260Z,102159.31
2022-12-28T01:23:53.564Z,102164.19
2022-12-28T01:26:21.438Z,102166.47
2022-12-28T01:28:48.815Z,102168.91
2022-12-28T01:31:17.068Z,102167.31
2022-12-28T01:33:44.730Z,102174.41
2022-12-28T01:36:12.360Z,102179.25
2022-12-28T01:38:39.783Z,102176.50
2022-12-28T01:41:09.383Z,102182.78
2022-12-28T01:43:40.456Z,102178.63
2022-12-28T01:46:09.802Z,102174.47
2022-12-28T01:48:45.905Z,102186.53
2022-12-28T01:51:13.385Z,102184.84
2022-12-28T01:53:40.899Z,102185.13
2022-12-28T01:56:09.016Z,102182.13
2022-12-28T01:58:37.361Z,102183.84
2022-12-28T02:01:05.516Z,102181.03
2022-12-28T02:03:34.900Z,102178.13
2022-12-28T02:06:05.573Z,102180.66
2022-12-28T02:08:37.723Z,102168.00
2022-12-28T02:11:06.890Z,102164.41
2022-12-28T02:13:34.855Z,102161.59
2022-12-28T02:16:04.872Z,102158.47
2022-12-28T02:18:33.163Z,102163.41
2022-12-28T02:21:03.555Z,102158.19
2022-12-28T02:23:37.475Z,102152.50
2022-12-28T02:26:13.878Z,102154.50
2022-12-28T02:28:50.895Z,102152.25
2022-12-28T02:31:22.379Z,102162.66
2022-12-28T02:33:53.764Z,102163.38
2022-12-28T02:36:28.041Z,102154.16
2022-12-28T02:39:18.394Z,102161.94
2022-12-28T02:41:47.350Z,102155.88
2022-12-28T02:44:37.059Z,102152.25
2022-12-28T02:47:20.498Z,102158.38
2022-12-28T02:50:06.287Z,102150.22
2022-12-28T02:52:54.442Z,102156.38
2022-12-28T02:55:47.515Z,102160.81
2022-12-28T02:58:17.969Z,102139.84
2022-12-28T03:01:05.684Z,102143.75
2022-12-28T03:03:33.173Z,102152.34
2022-12-28T03:06:31.760Z,102142.63
2022-12-28T03:09:18.933Z,102139.81
2022-12-28T03:11:53.183Z,102141.72
2022-12-28T03:14:40.838Z,102136.22
2022-12-28T03:17:28.357Z,102144.00
2022-12-28T03:20:16.521Z,102129.66
2022-12-28T03:23:04.185Z,102122.03
2022-12-28T03:25:53.888Z,102113.03
2022-12-28T03:28:48.893Z,102102.50
2022-12-28T03:31:21.335Z,102113.38
2022-12-28T03:34:06.811Z,102108.84
2022-12-28T03:36:44.880Z,102101.13
2022-12-28T03:39:12.460Z,102101.53
2022-12-28T03:41:50.412Z,102106.00
2022-12-28T03:44:32.987Z,102101.91
2022-12-28T03:47:05.483Z,102108.19
2022-12-28T03:49:33.285Z,102120.41
2022-12-28T03:52:01.837Z,102128.53
2022-12-28T03:54:29.688Z,102134.44
2022-12-28T03:56:57.371Z,102138.81
2022-12-28T03:59:29.730Z,102147.09
2022-12-28T04:01:58.225Z,102140.44
2022-12-28T04:04:25.606Z,102143.69
2022-12-28T04:06:53.033Z,102148.66
2022-12-28T04:09:22.578Z,102147.59
2022-12-28T04:11:50.128Z,102152.09
2022-12-28T04:14:25.664Z,102145.63
2022-12-28T04:16:53.364Z,102142.66
2022-12-28T04:19:21.771Z,102125.25
2022-12-28T04:21:49.416Z,102122.22
2022-12-28T04:24:17.119Z,102114.44
2022-12-28T04:26:44.973Z,102113.66
2022-12-28T04:29:13.596Z,102113.34
2022-12-28T04:31:58.489Z,102107.69
2022-12-28T04:34:26.380Z,102109.41
2022-12-28T04:37:13.971Z,102103.44
2022-12-28T04:39:55.892Z,102101.38
2022-12-28T04:42:27.828Z,102086.84
2022-12-28T04:44:55.310Z,102092.41
2022-12-28T04:47:22.622Z,102094.34
2022-12-28T04:49:50.567Z,102101.72
2022-12-28T04:52:17.936Z,102100.00
2022-12-28T04:54:45.582Z,102102.00
2022-12-28T04:57:13.229Z,102097.63
2022-12-28T04:59:40.632Z,102107.28
2022-12-28T05:02:08.801Z,102107.22
2022-12-28T05:04:36.820Z,102109.78
2022-12-28T05:07:04.724Z,102115.72
2022-12-28T05:09:32.151Z,102115.34
2022-12-28T05:11:59.423Z,102109.03
2022-12-28T05:14:28.940Z,102104.81
2022-12-28T05:16:59.744Z,102105.97
2022-12-28T05:19:27.999Z,102108.22
2022-12-28T05:21:55.691Z,102112.81
2022-12-28T05:24:23.057Z,102101.50
2022-12-28T05:26:50.369Z,102098.81
2022-12-28T05:29:18.204Z,102090.22
2022-12-28T05:31:45.565Z,102082.47
2022-12-28T05:34:13.032Z,102079.25
2022-12-28T05:36:41.168Z,102082.94
2022-12-28T05:39:08.570Z,102082.00
2022-12-28T05:41:36.327Z,102079.25
2022-12-28T05:44:03.698Z,102082.00
2022-12-28T05:46:33.372Z,102089.88
2022-12-28T05:49:01.787Z,102097.75
2022-12-28T05:51:30.727Z,102101.72
2022-12-28T05:53:59.099Z,102102.66
2022-12-28T05:56:28.346Z,102102.28
2022-12-28T05:58:58.423Z,102105.78
2022-12-28T06:01:27.486Z,102111.91
2022-12-28T06:03:56.273Z,102111.88
2022-12-28T06:06:24.076Z,102117.19
2022-12-28T06:08:52.350Z,102118.63
2022-12-28T06:11:21.888Z,102117.50
2022-12-28T06:13:49.865Z,102120.59
2022-12-28T06:16:18.763Z,102122.00
2022-12-28T06:18:46.932Z,102117.00
2022-12-28T06:21:16.008Z,102123.16
2022-12-28T06:23:44.177Z,102120.38
2022-12-28T06:26:13.051Z,102122.38
2022-12-28T06:28:41.413Z,102121.38
2022-12-28T06:31:16.500Z,102123.97
2022-12-28T06:33:44.196Z,102134.22
2022-12-28T06:36:20.511Z,102136.66
2022-12-28T06:38:48.981Z,102135.78
2022-12-28T06:41:17.493Z,102139.06
2022-12-28T06:43:44.947Z,102134.66
2022-12-28T06:46:13.144Z,102135.91
2022-12-28T06:48:41.339Z,102131.72
2022-12-28T06:51:11.530Z,102132.94
2022-12-28T06:53:39.242Z,102135.28
2022-12-28T06:56:07.933Z,102129.34
2022-12-28T06:58:35.326Z,102131.06
2022-12-28T07:01:07.132Z,102134.25
2022-12-28T07:03:34.643Z,102139.88
2022-12-28T07:06:03.506Z,102145.03
2022-12-28T07:08:31.262Z,102147.97
2022-12-28T07:11:02.350Z,102138.09
2022-12-28T07:13:29.665Z,102141.63
2022-12-28T07:15:57.033Z,102146.25
2022-12-28T07:18:24.868Z,102142.69
2022-12-28T07:20:58.435Z,102144.97
2022-12-28T07:23:30.100Z,102143.13
2022-12-28T07:25:58.518Z,102142.53
2022-12-28T07:28:25.933Z,102147.09
2022-12-28T07:30:53.349Z,102139.66
2022-12-28T07:33:21.327Z,102144.63
2022-12-28T07:35:48.785Z,102143.50
2022-12-28T07:38:21.097Z,102146.34
2022-12-28T07:40:49.340Z,102147.09
2022-12-28T07:43:16.679Z,102147.19
2022-12-28T07:45:44.460Z,102143.28
2022-12-28T07:48:12.320Z,102133.91
2022-12-28T07:50:40.077Z,102131.19
2022-12-28T07:53:07.401Z,102138.81
2022-12-28T07:55:34.822Z,102138.34
2022-12-28T07:58:02.135Z,102138.59
2022-12-28T08:00:29.601Z,102138.31
2022-12-28T08:02:57.365Z,102141.31
2022-12-28T08:05:24.705Z,102149.22
2022-12-28T08:07:52.552Z,102148.41
2022-12-28T08:10:19.850Z,102144.09
2022-12-28T08:12:47.307Z,102150.72
2022-12-28T08:15:15.147Z,102148.34
2022-12-28T08:17:43.183Z,102153.41
2022-12-28T08:20:11.131Z,102150.56
2022-12-28T08:22:38.883Z,102156.66
2022-12-28T08:25:06.485Z,102152.88
2022-12-28T08:27:38.409Z,102159.63
2022-12-28T08:30:06.441Z,102157.91
2022-12-28T08:32:33.791Z,102150.97
2022-12-28T08:35:01.310Z,102155.78
2022-12-28T08:37:28.626Z,102149.44
2022-12-28T08:39:56.402Z,102152.56
2022-12-28T08:42:24.210Z,102158.31
2022-12-28T08:44:51.987Z,102156.78
2022-12-28T08:47:19.510Z,102156.03
2022-12-28T08:49:47.260Z,102156.81
2022-12-28T08:52:14.602Z,102155.78
2022-12-28T08:54:41.921Z,102150.19
2022-12-28T08:57:09.281Z,102149.75
2022-12-28T08:59:36.607Z,102147.97
2022-12-28T09:02:04.443Z,102150.41
2022-12-28T09:04:31.898Z,102148.63
2022-12-28T09:06:59.179Z,102145.31
2022-12-28T09:09:26.480Z,102151.09
2022-12-28T09:11:54.373Z,102155.84
2022-12-28T09:14:24.203Z,102152.53
2022-12-28T09:16:53.106Z,102157.72
2022-12-28T09:19:20.800Z,102156.88
2022-12-28T09:21:53.369Z,102160.84
2022-12-28T09:24:22.080Z,102151.50
2022-12-28T09:26:52.599Z,102157.72
2022-12-28T09:29:20.227Z,102150.78
2022-12-28T09:31:47.656Z,102157.25
2022-12-28T09:37:03.386Z,102157.53
2022-12-28T09:39:31.305Z,102155.41
2022-12-28T09:42:02.294Z,102151.25
2022-12-28T09:44:35.550Z,102147.19
2022-12-28T09:47:06.206Z,102147.56
2022-12-28T09:49:36.892Z,102146.22
2022-12-28T09:52:22.197Z,102155.16
2022-12-28T09:54:49.609Z,102150.06
2022-12-28T09:57:18.584Z,102161.19
2022-12-28T09:59:47.067Z,102156.75
2022-12-28T10:02:19.546Z,102152.69
2022-12-28T10:04:50.483Z,102157.50
2022-12-28T10:07:18.160Z,102158.88
2022-12-28T10:09:46.803Z,102153.56
2022-12-28T10:12:16.175Z,102155.25
2022-12-28T10:14:45.877Z,102154.34
2022-12-28T10:17:14.575Z,102151.94
2022-12-28T10:19:44.622Z,102159.19
2022-12-28T10:22:13.880Z,102149.78
2022-12-28T10:24:42.446Z,102149.53
2022-12-28T10:27:15.405Z,102156.56
2022-12-28T10:29:43.549Z,102160.25
2022-12-28T10:32:12.727Z,102152.84
2022-12-28T10:34:55.114Z,102154.56
2022-12-28T10:37:24.079Z,102155.56
2022-12-28T10:39:57.364Z,102159.75
2022-12-28T10:42:27.625Z,102151.44
2022-12-28T10:44:58.209Z,102149.41
2022-12-28T10:47:26.091Z,102146.97
2022-12-28T10:50:26.889Z,102142.03
2022-12-28T10:52:41.175Z,102140.84
2022-12-28T10:55:26.709Z,102137.16
2022-12-28T11:00:45.669Z,102132.59
2022-12-28T11:03:19.371Z,102128.03
2022-12-28T11:05:56.484Z,102117.44
2022-12-28T11:08:24.637Z,102117.19
2022-12-28T11:10:57.136Z,102111.16
2022-12-28T11:13:27.237Z,102104.94
2022-12-28T11:15:55.083Z,102109.53
2022-12-28T11:18:22.526Z,102105.63
2022-12-28T11:20:51.240Z,102103.97
2022-12-28T11:23:20.356Z,102110.28
2022-12-28T11:25:47.987Z,102101.63
2022-12-28T11:28:17.395Z,102098.97
2022-12-28T11:30:46.949Z,102095.28
2022-12-28T11:33:25.383Z,102095.06
2022-12-28T11:35:59.443Z,102083.41
2022-12-28T11:38:43.984Z,102082.13
2022-12-28T11:41:33.916Z,102075.75
2022-12-28T11:44:04.708Z,102068.97
2022-12-28T11:46:35.304Z,102063.72
2022-12-28T11:49:21.090Z,102062.69
2022-12-28T11:52:08.783Z,102047.94
2022-12-28T11:54:37.292Z,102047.34
2022-12-28T11:57:04.631Z,102046.53
2022-12-28T11:59:33.367Z,102041.22
2022-12-28T12:02:02.132Z,102042.94
2022-12-28T12:04:36.453Z,102045.50
2022-12-28T12:07:03.825Z,102039.84
2022-12-28T12:09:32.862Z,102040.63
2022-12-28T12:12:22.968Z,102033.13
2022-12-28T12:15:10.589Z,102029.69
2022-12-28T12:17:46.912Z,102027.75
2022-12-28T12:20:34.398Z,102021.66
2022-12-28T12:23:09.686Z,102025.03
2022-12-28T12:25:37.325Z,102015.75
2022-12-28T12:28:27.869Z,102016.78
2022-12-28T12:30:55.970Z,102013.06
2022-12-28T12:33:27.934Z,102005.22
2022-12-28T12:35:58.254Z,102002.41
2022-12-28T12:38:31.430Z,102008.34
2022-12-28T12:40:58.915Z,102008.66
2022-12-28T12:43:32.804Z,101998.25
2022-12-28T12:46:00.216Z,101998.94
2022-12-28T12:48:34.202Z,101994.53
2022-12-28T12:51:14.625Z,101998.84
2022-12-28T12:53:50.907Z,101997.56
2022-12-28T12:56:39.114Z,101999.78
2022-12-28T12:59:07.026Z,101995.75
2022-12-28T13:01:42.906Z,101988.84
2022-12-28T13:04:21.787Z,101981.78
2022-12-28T13:06:51.270Z,101973.94
2022-12-28T13:09:20.290Z,101969.25
2022-12-28T13:11:48.382Z,101963.59
2022-12-28T13:14:23.002Z,101974.03
2022-12-28T13:16:51.832Z,101970.75
2022-12-28T13:19:20.870Z,101960.00
2022-12-28T13:21:49.235Z,101965.97
2022-12-28T13:24:25.228Z,101953.88
2022-12-28T13:26:53.309Z,101949.09
2022-12-28T13:29:23.321Z,101962.25
2022-12-28T13:31:51.469Z,101943.97
2022-12-28T13:34:38.875Z,101944.84
2022-12-28T13:37:14.394Z,101948.03
2022-12-28T13:39:42.745Z,101931.44
2022-12-28T13:42:42.375Z,101939.25
2022-12-28T13:45:15.298Z,101932.78
2022-12-28T13:47:48.202Z,101937.72
2022-12-28T13:50:21.362Z,101920.84
2022-12-28T13:52:50.336Z,101932.41
2022-12-28T13:55:20.917Z,101932.06
2022-12-28T13:57:55.671Z,101927.59
2022-12-28T14:00:25.615Z,101920.69
2022-12-28T14:02:55.587Z,101920.19
2022-12-28T14:05:28.689Z,101917.94
2022-12-28T14:07:58.324Z,101921.69
2022-12-28T14:10:26.337Z,101914.41
2022-12-28T14:12:54.276Z,101919.72
2022-12-28T14:15:22.760Z,101915.03
2022-12-28T14:17:50.960Z,101907.97
2022-12-28T14:20:18.892Z,101912.25
2022-12-28T14:22:46.925Z,101912.50
2022-12-28T14:25:15.803Z,101908.69
2022-12-28T14:28:06.249Z,101910.50
2022-12-28T14:30:38.579Z,101911.16
2022-12-28T14:33:22.310Z,101904.97
2022-12-28T14:35:54.441Z,101916.91
2022-12-28T14:38:23.532Z,101917.50
2022-12-28T14:40:58.452Z,101913.09
2022-12-28T14:43:36.114Z,101913.22
2022-12-28T14:46:18.527Z,101904.94
2022-12-28T14:48:47.112Z,101915.16
2022-12-28T14:51:17.426Z,101916.31
2022-12-28T14:53:45.859Z,101920.78
2022-12-28T14:56:16.229Z,101918.97
2022-12-28T14:58:50.509Z,101918.09
2022-12-28T15:01:20.752Z,101917.59
2022-12-28T15:03:55.003Z,101917.38
2022-12-28T15:06:26.181Z,101909.00
2022-12-28T15:08:54.770Z,101910.84
2022-12-28T15:11:23.374Z,101909.75
2022-12-28T15:13:50.696Z,101904.63
2022-12-28T15:16:19.394Z,101914.03
2022-12-28T15:18:46.969Z,101915.28
2022-12-28T15:21:17.543Z,101907.44
2022-12-28T15:23:48.328Z,101910.41
2022-12-28T15:26:16.031Z,101912.88
2022-12-28T15:28:43.585Z,101910.09
2022-12-28T15:31:12.958Z,101919.25
2022-12-28T15:33:40.828Z,101908.00
2022-12-28T15:36:16.941Z,101913.19
2022-12-28T15:38:45.587Z,101913.88
2022-12-28T15:41:31.631Z,101914.84
2022-12-28T15:43:59.021Z,101917.94
2022-12-28T15:46:26.460Z,101918.47
2022-12-28T15:48:54.245Z,101916.13
2022-12-28T15:51:22.140Z,101911.34
2022-12-28T15:53:49.558Z,101915.06
2022-12-28T15:56:24.774Z,101909.03
2022-12-28T15:58:56.023Z,101909.88
2022-12-28T16:01:24.170Z,101912.03
2022-12-28T16:03:52.160Z,101914.72
2022-12-28T16:06:20.689Z,101913.41
2022-12-28T16:08:48.277Z,101922.31
2022-12-28T16:11:18.001Z,101918.22
2022-12-28T16:13:50.409Z,101915.25
2022-12-28T16:16:18.232Z,101915.13
2022-12-28T16:18:46.348Z,101919.31
2022-12-28T16:21:14.443Z,101927.28
2022-12-28T16:23:43.887Z,101927.91
2022-12-28T16:26:13.301Z,101929.53
2022-12-28T16:28:42.347Z,101929.31
2022-12-28T16:31:23.738Z,101924.00
2022-12-28T16:33:56.288Z,101926.00
2022-12-28T16:36:24.067Z,101932.16
2022-12-28T16:38:52.179Z,101927.75
2022-12-28T16:41:20.511Z,101927.13
2022-12-28T16:43:48.250Z,101925.13
2022-12-28T16:46:16.540Z,101925.28
2022-12-28T16:48:44.368Z,101921.50
2022-12-28T16:51:12.462Z,101930.47
2022-12-28T16:53:40.644Z,101935.06
2022-12-28T16:56:08.223Z,101938.38
2022-12-28T16:58:35.794Z,101940.03
2022-12-28T17:01:09.746Z,101941.81
2022-12-28T17:03:39.180Z,101941.88
2022-12-28T17:06:06.903Z,101935.56
2022-12-28T17:08:35.587Z,101940.03
2022-12-28T17:11:07.101Z,101939.38
2022-12-28T17:13:34.460Z,101935.06
2022-12-28T17:16:02.707Z,101950.34
2022-12-28T17:18:30.302Z,101944.47
2022-12-28T17:21:01.845Z,101944.94
2022-12-28T17:23:34.302Z,101940.03
2022-12-28T17:26:02.298Z,101938.44
2022-12-28T17:28:30.517Z,101939.28
2022-12-28T17:31:08.355Z,101938.00
2022-12-28T17:33:39.721Z,101942.94
2022-12-28T17:36:08.754Z,101944.19
2022-12-28T17:38:37.077Z,101940.00
2022-12-28T17:41:08.756Z,101944.44
2022-12-28T17:43:36.977Z,101941.13
2022-12-28T17:46:04.808Z,101934.91
2022-12-28T17:48:32.265Z,101931.16
2022-12-28T17:50:59.968Z,101926.72
2022-12-28T17:53:29.121Z,101928.25
2022-12-28T17:56:00.953Z,101932.22
2022-12-28T17:58:29.100Z,101927.03
2022-12-28T18:00:57.127Z,101923.56
2022-12-28T18:03:29.938Z,101934.22
2022-12-28T18:06:01.263Z,101933.50
2022-12-28T18:08:30.107Z,101934.47
2022-12-28T18:10:57.478Z,101931.47
2022-12-28T18:13:24.940Z,101928.28
2022-12-28T18:15:52.498Z,101933.69
2022-12-28T18:18:20.006Z,101930.53
2022-12-28T18:21:01.199Z,101930.53
2022-12-28T18:23:29.213Z,101930.16
2022-12-28T18:26:04.292Z,101929.50
2022-12-28T18:28:32.324Z,101922.69
2022-12-28T18:31:02.485Z,101925.03
2022-12-28T18:33:31.264Z,101926.91
2022-12-28T18:35:59.535Z,101929.91
2022-12-28T18:38:26.945Z,101928.19
2022-12-28T18:40:55.721Z,101932.47
2022-12-28T18:43:23.296Z,101928.97
2022-12-28T18:45:52.058Z,101930.50
2022-12-28T18:48:20.347Z,101922.66
2022-12-28T18:50:59.135Z,101924.72
2022-12-28T18:53:27.562Z,101926.41
2022-12-28T18:56:02.262Z,101919.97
2022-12-28T18:58:31.078Z,101916.38
2022-12-28T19:01:40.056Z,101922.84
2022-12-28T19:04:07.861Z,101914.41
2022-12-28T19:06:36.213Z,101914.09
2022-12-28T19:09:05.334Z,101913.97
2022-12-28T19:11:32.758Z,101917.44
2022-12-28T19:14:01.496Z,101918.34
2022-12-28T19:16:31.926Z,101921.56
2022-12-28T19:19:00.797Z,101914.75
2022-12-28T19:21:31.397Z,101909.75
2022-12-28T19:24:03.202Z,101917.88
2022-12-28T19:26:31.469Z,101916.94
2022-12-28T19:28:59.438Z,101913.22
2022-12-28T19:31:27.582Z,101918.84
2022-12-28T19:33:55.341Z,101916.72
2022-12-28T19:36:23.770Z,101918.00
2022-12-28T19:38:53.138Z,101925.22
2022-12-28T19:41:20.511Z,101920.72
2022-12-28T19:43:48.489Z,101931.28
2022-12-28T19:46:17.496Z,101915.34
2022-12-28T19:48:45.176Z,101926.09
2022-12-28T19:51:13.022Z,101920.66
2022-12-28T19:53:40.469Z,101925.56
2022-12-28T19:56:09.193Z,101925.03
2022-12-28T19:58:39.517Z,101921.09
2022-12-28T20:01:09.048Z,101922.78
2022-12-28T20:03:37.114Z,101918.09
2022-12-28T20:06:11.935Z,101918.84
2022-12-28T20:08:39.946Z,101915.00
2022-12-28T20:11:07.867Z,101919.00
2022-12-28T20:13:35.729Z,101924.44
2022-12-28T20:16:03.326Z,101929.25
2022-12-28T20:18:30.988Z,101925.56
2022-12-28T20:21:20.488Z,101925.94
2022-12-28T20:23:49.236Z,101922.53
2022-12-28T20:26:17.763Z,101925.16
2022-12-28T20:28:45.594Z,101918.84
2022-12-28T20:31:14.212Z,101919.06
2022-12-28T20:33:42.287Z,101917.19
2022-12-28T20:36:16.758Z,101931.91
2022-12-28T20:38:44.381Z,101932.28
2022-12-28T20:41:33.145Z,101927.59
2022-12-28T20:44:02.425Z,101919.91
2022-12-28T20:46:29.901Z,101913.78
2022-12-28T20:48:58.454Z,101911.66
2022-12-28T20:51:26.370Z,101912.00
2022-12-28T20:53:54.270Z,101912.97
2022-12-28T20:56:23.074Z,101917.47
2022-12-28T20:58:50.677Z,101910.47
2022-12-28T21:01:18.491Z,101909.94
2022-12-28T21:03:46.844Z,101912.19
2022-12-28T21:06:14.321Z,101910.31
2022-12-28T21:08:41.658Z,101907.31
2022-12-28T21:11:09.815Z,101899.16
2022-12-28T21:13:42.395Z,101907.25
2022-12-28T21:16:11.925Z,101901.28
2022-12-28T21:18:40.097Z,101897.53
2022-12-28T21:21:13.284Z,101904.59
2022-12-28T21:23:41.048Z,101897.44
2022-12-28T21:26:11.983Z,101890.47
2022-12-28T21:28:39.835Z,101884.38
2022-12-28T21:31:07.533Z,101884.53
2022-12-28T21:33:35.243Z,101894.06
2022-12-28T21:36:02.576Z,101889.19
2022-12-28T21:38:31.206Z,101889.06
2022-12-28T21:41:00.309Z,101887.13
2022-12-28T21:43:28.027Z,101886.75
2022-12-28T21:46:02.187Z,101879.34
2022-12-28T21:48:34.582Z,101886.47
2022-12-28T21:51:28.000Z,101891.66
2022-12-28T21:53:55.796Z,101898.22
2022-12-28T21:56:24.248Z,101893.88
2022-12-28T21:58:52.222Z,101895.72
2022-12-28T22:01:39.285Z,101903.19
2022-12-28T22:04:26.448Z,101888.72
2022-12-28T22:06:53.701Z,101886.59
2022-12-28T22:09:39.468Z,101890.16
2022-12-28T22:12:25.867Z,101882.50
2022-12-28T22:15:13.089Z,101880.69
2022-12-28T22:17:40.970Z,101876.78
2022-12-28T22:20:09.824Z,101877.75
2022-12-28T22:22:37.532Z,101888.84
2022-12-28T22:25:05.033Z,101873.81
2022-12-28T22:27:32.469Z,101876.03
2022-12-28T22:29:59.837Z,101872.72
2022-12-28T22:32:27.599Z,101872.22
2022-12-28T22:34:55.113Z,101858.34
2022-12-28T22:37:22.849Z,101852.41
2022-12-28T22:39:50.191Z,101820.81
2022-12-28T22:42:18.044Z,101825.81
2022-12-28T22:44:45.813Z,101826.16
2022-12-28T22:47:13.840Z,101823.63
2022-12-28T22:49:41.123Z,101826.13
2022-12-28T22:52:08.419Z,101837.53
2022-12-28T22:54:35.775Z,101850.41
2022-12-28T22:57:03.431Z,101853.72
2022-12-28T22:59:31.346Z,101849.88
2022-12-28T23:01:59.312Z,101851.38
2022-12-28T23:04:27.039Z,101839.91
2022-12-28T23:06:57.318Z,101834.66
2022-12-28T23:09:29.100Z,101835.50
2022-12-28T23:11:56.463Z,101837.28
2022-12-28T23:14:43.629Z,101834.66
2022-12-28T23:17:12.910Z,101834.28
2022-12-28T23:19:59.800Z,101826.25
2022-12-28T23:22:48.045Z,101820.56
2022-12-28T23:25:35.953Z,101823.31
2022-12-28T23:28:04.670Z,101829.44
2022-12-28T23:30:32.614Z,101833.00
2022-12-28T23:32:59.914Z,101837.38
2022-12-28T23:35:28.071Z,101835.34
2022-12-28T23:37:55.452Z,101826.66
2022-12-28T23:40:23.151Z,101822.44
2022-12-28T23:42:50.812Z,101812.34
2022-12-28T23:45:18.635Z,101810.88
2022-12-28T23:47:46.217Z,101816.00
2022-12-28T23:50:14.551Z,101809.75
2022-12-28T23:52:42.419Z,101813.22
2022-12-28T23:55:10.551Z,101815.69
2022-12-28T23:57:38.678Z,101806.66
